Time;durP1;ratioP1;P1;durP2;ratioP2;P2;SDS_P1;SDS_P2;PMS_P1;PMS_P2;Temp;Humidity;BMP_temperature;BMP_pressure;BME280_temperature;BME280_humidity;BME280_pressure;Samples;Min_cycle;Max_cycle;Signal;HPM_P1;HPM_P2
2023/10/14 00:03:26;;;;;;;56.53;30.23;;;;;;;;;;12982135;22;20720;-87
2023/10/14 00:08:31;;;;;;;61.17;30.73;;;;;;;;;;12980868;22;20382;-88
2023/10/14 00:13:41;;;;;;;56.92;30.25;;;;;;;;;;12982197;22;20362;-87
2023/10/14 00:18:47;;;;;;;58.97;29.77;;;;;;;;;;12985050;22;20393;-86
2023/10/14 00:23:50;;;;;;;56.07;28.83;;;;;;;;;;13014095;22;20830;-88
2023/10/14 00:29:00;;;;;;;55.13;29.87;;;;;;;;;;13002864;22;20370;-88
2023/10/14 00:34:03;;;;;;;58.40;28.23;;;;;;;;;;12981254;22;20366;-88
2023/10/14 00:39:12;;;;;;;53.20;28.50;;;;;;;;;;12981433;22;20362;-87
2023/10/14 00:44:16;;;;;;;60.67;29.30;;;;;;;;;;12980903;22;20416;-88
2023/10/14 00:49:21;;;;;;;49.50;27.17;;;;;;;;;;13001133;22;20379;-87
2023/10/14 00:54:40;;;;;;;55.60;28.85;;;;;;;;;;12980488;22;20435;-88
2023/10/14 00:59:44;;;;;;;55.20;28.17;;;;;;;;;;12981057;22;20424;-88
2023/10/14 01:04:53;;;;;;;52.97;28.58;;;;;;;;;;12980616;22;20667;-87
2023/10/14 01:09:55;;;;;;;48.13;26.80;;;;;;;;;;13044603;22;20395;-87
2023/10/14 01:15:00;;;;;;;52.33;27.17;;;;;;;;;;13044836;22;20365;-87
2023/10/14 01:20:26;;;;;;;53.58;27.60;;;;;;;;;;13049968;22;20358;-88
2023/10/14 01:25:31;;;;;;;58.70;29.47;;;;;;;;;;13048660;22;20754;-88
2023/10/14 01:30:37;;;;;;;53.28;28.67;;;;;;;;;;13043736;22;20446;-87
2023/10/14 01:35:45;;;;;;;53.37;27.77;;;;;;;;;;13044469;22;20365;-88
2023/10/14 01:40:49;;;;;;;53.47;27.63;;;;;;;;;;13044475;22;20405;-88
2023/10/14 01:46:00;;;;;;;47.47;26.65;;;;;;;;;;13044378;22;20850;-88
2023/10/14 01:51:03;;;;;;;51.35;28.08;;;;;;;;;;13043000;22;20395;-89
2023/10/14 01:56:07;;;;;;;50.27;26.07;;;;;;;;;;13044673;22;20410;-88
2023/10/14 02:01:15;;;;;;;48.10;25.48;;;;;;;;;;13044353;22;20840;-88
2023/10/14 02:06:20;;;;;;;49.85;26.33;;;;;;;;;;13025184;22;20448;-87
2023/10/14 02:11:25;;;;;;;48.87;25.80;;;;;;;;;;12980430;22;20664;-87
2023/10/14 02:16:30;;;;;;;52.05;26.30;;;;;;;;;;12978604;22;20367;-88
2023/10/14 02:21:34;;;;;;;50.03;27.10;;;;;;;;;;13019847;22;20393;-89
2023/10/14 02:26:38;;;;;;;55.75;27.80;;;;;;;;;;12983550;22;20386;-89
2023/10/14 02:31:43;;;;;;;49.50;25.88;;;;;;;;;;12980744;22;20367;-88
2023/10/14 02:36:52;;;;;;;47.50;26.35;;;;;;;;;;12980189;22;20362;-88
2023/10/14 02:42:00;;;;;;;56.15;28.42;;;;;;;;;;12979849;22;20366;-88
2023/10/14 02:47:04;;;;;;;56.20;28.27;;;;;;;;;;13001244;22;20378;-88
2023/10/14 02:52:11;;;;;;;54.30;26.97;;;;;;;;;;12980699;22;20358;-88
2023/10/14 02:57:23;;;;;;;51.90;27.27;;;;;;;;;;12984700;22;20359;-88
2023/10/14 03:02:27;;;;;;;50.83;26.15;;;;;;;;;;12983455;22;20366;-87
2023/10/14 03:07:31;;;;;;;53.70;26.37;;;;;;;;;;12982891;22;20460;-86
2023/10/14 03:12:39;;;;;;;49.53;26.42;;;;;;;;;;12984384;22;20448;-88
2023/10/14 03:17:43;;;;;;;52.13;26.37;;;;;;;;;;12984333;22;20363;-88
2023/10/14 03:22:46;;;;;;;51.75;26.67;;;;;;;;;;13001313;22;20436;-88
2023/10/14 03:27:50;;;;;;;48.27;26.07;;;;;;;;;;12983666;22;20378;-89
2023/10/14 03:32:52;;;;;;;50.78;26.80;;;;;;;;;;12983869;22;20813;-88
2023/10/14 03:37:59;;;;;;;50.77;26.30;;;;;;;;;;12983489;22;20371;-88
2023/10/14 03:43:08;;;;;;;53.10;27.53;;;;;;;;;;12982719;22;20355;-88
2023/10/14 03:48:13;;;;;;;53.05;27.75;;;;;;;;;;12957453;22;20409;-89
2023/10/14 03:53:17;;;;;;;55.63;27.75;;;;;;;;;;12982558;22;20416;-88
2023/10/14 03:58:20;;;;;;;55.33;29.45;;;;;;;;;;12981954;22;20366;-87
2023/10/14 04:03:39;;;;;;;53.78;27.20;;;;;;;;;;12981470;22;20687;-88
2023/10/14 04:08:46;;;;;;;52.70;26.13;;;;;;;;;;12981148;22;20441;-88
2023/10/14 04:13:58;;;;;;;52.13;27.03;;;;;;;;;;12982950;22;20464;-88
2023/10/14 04:19:06;;;;;;;53.42;27.20;;;;;;;;;;12984010;22;20358;-88
2023/10/14 04:24:20;;;;;;;53.42;27.52;;;;;;;;;;12997089;22;20406;-88
2023/10/14 04:29:34;;;;;;;52.17;26.02;;;;;;;;;;12981655;22;20409;-88
2023/10/14 04:34:36;;;;;;;55.53;27.45;;;;;;;;;;12980961;22;20404;-88
2023/10/14 04:39:43;;;;;;;51.33;25.37;;;;;;;;;;12981443;22;20676;-87
2023/10/14 04:44:54;;;;;;;47.40;25.40;;;;;;;;;;12979618;22;20439;-87
2023/10/14 04:49:57;;;;;;;54.97;27.17;;;;;;;;;;12999736;22;20808;-87
2023/10/14 04:55:08;;;;;;;54.05;27.17;;;;;;;;;;12977793;22;20444;-87
2023/10/14 05:00:30;;;;;;;53.00;26.93;;;;;;;;;;13001347;22;20351;-88
2023/10/14 05:05:33;;;;;;;53.53;26.75;;;;;;;;;;12974830;22;20390;-87
2023/10/14 05:10:41;;;;;;;52.05;25.05;;;;;;;;;;12975424;22;20383;-88
2023/10/14 05:15:52;;;;;;;47.70;25.83;;;;;;;;;;12978479;22;20370;-88
2023/10/14 05:21:03;;;;;;;49.45;24.75;;;;;;;;;;12985355;22;20430;-89
2023/10/14 05:26:06;;;;;;;51.30;25.53;;;;;;;;;;12986191;22;20389;-88
2023/10/14 05:31:10;;;;;;;48.00;25.00;;;;;;;;;;12978921;22;20370;-88
2023/10/14 05:36:13;;;;;;;51.92;25.52;;;;;;;;;;12978892;22;20362;-86
2023/10/14 05:41:15;;;;;;;46.85;25.25;;;;;;;;;;12976555;22;20416;-88
2023/10/14 05:46:20;;;;;;;48.95;24.98;;;;;;;;;;12982669;22;20363;-86
2023/10/14 05:51:22;;;;;;;49.38;24.73;;;;;;;;;;12975221;22;20367;-88
2023/10/14 05:56:28;;;;;;;49.45;24.73;;;;;;;;;;12975061;22;20374;-87
2023/10/14 06:01:31;;;;;;;48.40;25.30;;;;;;;;;;12973552;22;20362;-87
2023/10/14 06:06:35;;;;;;;47.85;25.80;;;;;;;;;;12973946;22;20374;-87
2023/10/14 06:11:37;;;;;;;52.55;26.10;;;;;;;;;;12978111;22;20668;-85
2023/10/14 06:16:41;;;;;;;44.77;23.70;;;;;;;;;;12979682;22;20370;-88
2023/10/14 06:21:44;;;;;;;43.10;24.07;;;;;;;;;;12992459;22;20393;-87
2023/10/14 06:26:47;;;;;;;47.10;23.52;;;;;;;;;;13001083;22;20370;-87
2023/10/14 06:31:50;;;;;;;45.63;24.33;;;;;;;;;;12980290;22;20428;-87
2023/10/14 06:36:53;;;;;;;43.17;23.55;;;;;;;;;;12979405;22;20424;-87
2023/10/14 07:05:25;;;;;;;38.70;20.17;;;;;;;;;;10500276;27;20367;-89
2023/10/14 07:10:32;;;;;;;35.70;20.33;;;;;;;;;;10471011;28;20403;-88
2023/10/14 07:15:37;;;;;;;39.53;20.33;;;;;;;;;;10461190;28;20400;-88
2023/10/14 07:20:41;;;;;;;35.95;20.02;;;;;;;;;;10462166;28;20446;-87
2023/10/14 07:25:44;;;;;;;37.40;20.30;;;;;;;;;;10461869;28;20399;-87
2023/10/14 07:30:48;;;;;;;36.05;20.88;;;;;;;;;;10464705;28;20434;-86
2023/10/14 07:35:51;;;;;;;39.05;21.88;;;;;;;;;;10460498;28;20472;-85
2023/10/14 07:41:01;;;;;;;37.47;20.73;;;;;;;;;;10451642;28;20508;-86
2023/10/14 07:46:03;;;;;;;40.03;21.33;;;;;;;;;;10457462;28;20408;-86
2023/10/14 07:51:08;;;;;;;42.55;21.58;;;;;;;;;;10462637;28;20407;-86
2023/10/14 07:56:10;;;;;;;42.97;23.65;;;;;;;;;;10459975;28;20415;-86
2023/10/14 08:01:16;;;;;;;41.38;23.23;;;;;;;;;;10465216;28;20565;-86
2023/10/14 08:06:21;;;;;;;48.13;25.17;;;;;;;;;;10431174;28;20465;-85
2023/10/14 08:11:23;;;;;;;53.60;25.97;;;;;;;;;;10432499;28;20411;-86
2023/10/14 08:16:26;;;;;;;55.95;27.90;;;;;;;;;;10436641;28;20436;-86
2023/10/14 08:21:29;;;;;;;56.55;28.13;;;;;;;;;;10438717;28;20507;-86
2023/10/14 08:26:34;;;;;;;61.57;28.57;;;;;;;;;;10438920;28;20413;-86
2023/10/14 08:31:37;;;;;;;65.47;30.65;;;;;;;;;;10440318;28;20745;-85
2023/10/14 08:36:42;;;;;;;67.65;31.90;;;;;;;;;;10437894;28;20461;-86
2023/10/14 08:41:48;;;;;;;67.35;31.85;;;;;;;;;;10439757;28;20428;-86
2023/10/14 08:46:52;;;;;;;67.28;31.42;;;;;;;;;;10439954;28;20407;-86
2023/10/14 08:51:58;;;;;;;71.00;32.05;;;;;;;;;;10434063;28;20416;-85
2023/10/14 08:57:01;;;;;;;67.50;32.03;;;;;;;;;;10438572;28;20750;-85
2023/10/14 09:02:04;;;;;;;65.53;30.95;;;;;;;;;;10438421;28;20451;-85
2023/10/14 09:07:14;;;;;;;68.88;32.17;;;;;;;;;;10429368;28;20432;-86
2023/10/14 09:12:16;;;;;;;63.42;30.88;;;;;;;;;;10438615;28;20401;-86
2023/10/14 09:17:18;;;;;;;60.87;30.33;;;;;;;;;;10436676;28;20875;-85
2023/10/14 09:22:23;;;;;;;63.10;31.13;;;;;;;;;;10441438;28;20986;-86
2023/10/14 09:27:30;;;;;;;67.78;32.10;;;;;;;;;;10432712;28;20411;-86
2023/10/14 09:32:35;;;;;;;62.38;31.00;;;;;;;;;;10436544;28;20399;-86
2023/10/14 09:37:39;;;;;;;61.42;31.05;;;;;;;;;;10436199;28;20816;-85
2023/10/14 09:42:44;;;;;;;98.28;35.15;;;;;;;;;;10437286;28;20507;-85
2023/10/14 09:47:48;;;;;;;62.45;30.35;;;;;;;;;;10437489;28;20421;-86
2023/10/14 09:52:53;;;;;;;62.97;32.28;;;;;;;;;;10437449;28;20895;-85
2023/10/14 09:57:57;;;;;;;64.05;30.83;;;;;;;;;;10435990;28;20435;-86
2023/10/14 10:03:00;;;;;;;59.15;31.00;;;;;;;;;;10437354;28;20420;-83
2023/10/14 10:08:31;;;;;;;63.03;32.80;;;;;;;;;;10424267;28;20505;-85
2023/10/14 10:13:35;;;;;;;60.70;30.53;;;;;;;;;;10433693;28;20440;-84
2023/10/14 10:18:50;;;;;;;61.65;30.52;;;;;;;;;;10437994;28;20416;-84
2023/10/14 10:23:57;;;;;;;57.50;30.67;;;;;;;;;;10430216;28;20460;-84
2023/10/14 10:29:21;;;;;;;63.83;30.70;;;;;;;;;;10424454;28;20448;-83
2023/10/14 10:34:25;;;;;;;63.97;31.30;;;;;;;;;;10422006;28;20435;-84
2023/10/14 10:39:30;;;;;;;56.95;29.85;;;;;;;;;;10429312;28;20931;-83
2023/10/14 10:44:34;;;;;;;59.13;30.70;;;;;;;;;;10424755;28;20459;-84
2023/10/14 10:49:54;;;;;;;58.33;29.73;;;;;;;;;;10428158;28;20481;-83
2023/10/14 10:54:58;;;;;;;53.92;29.02;;;;;;;;;;10423668;28;20481;-84
2023/10/14 11:00:00;;;;;;;63.63;30.30;;;;;;;;;;10422929;28;20443;-83
2023/10/14 11:05:04;;;;;;;58.78;30.70;;;;;;;;;;10424030;28;20956;-83
2023/10/14 11:10:12;;;;;;;58.00;30.02;;;;;;;;;;10432536;28;21055;-83
2023/10/14 11:15:25;;;;;;;55.60;28.90;;;;;;;;;;10433631;28;21139;-83
2023/10/14 11:20:31;;;;;;;55.50;29.55;;;;;;;;;;10426406;28;20447;-84
2023/10/14 11:25:40;;;;;;;59.10;29.63;;;;;;;;;;10426407;28;20459;-82
2023/10/14 11:30:44;;;;;;;57.70;29.63;;;;;;;;;;10431633;28;20447;-83
2023/10/14 11:35:50;;;;;;;58.60;29.77;;;;;;;;;;10419561;28;20927;-83
2023/10/14 11:40:54;;;;;;;53.35;28.92;;;;;;;;;;10434454;28;20923;-83
2023/10/14 11:45:57;;;;;;;58.65;29.20;;;;;;;;;;10433818;28;20455;-83
2023/10/14 11:51:00;;;;;;;59.25;29.40;;;;;;;;;;10429074;28;20439;-83
2023/10/14 11:56:05;;;;;;;53.22;28.35;;;;;;;;;;10429526;28;20431;-84
2023/10/14 12:01:10;;;;;;;60.10;29.73;;;;;;;;;;10430056;28;21552;-83
2023/10/14 12:06:13;;;;;;;51.75;26.58;;;;;;;;;;10430550;28;20451;-83
2023/10/14 12:11:17;;;;;;;50.00;25.38;;;;;;;;;;10427033;28;20451;-84
2023/10/14 12:16:21;;;;;;;49.97;26.67;;;;;;;;;;10430957;28;20451;-83
2023/10/14 12:21:23;;;;;;;46.20;25.93;;;;;;;;;;10428912;28;21004;-84
2023/10/14 12:26:30;;;;;;;49.55;25.92;;;;;;;;;;10428452;28;20977;-85
2023/10/14 12:31:32;;;;;;;47.77;25.90;;;;;;;;;;10429685;28;20825;-85
2023/10/14 12:36:38;;;;;;;52.53;25.95;;;;;;;;;;10426344;28;21463;-84
2023/10/14 12:41:43;;;;;;;52.72;25.77;;;;;;;;;;10427738;28;20503;-84
2023/10/14 12:46:45;;;;;;;50.60;26.42;;;;;;;;;;10435281;28;20764;-84
2023/10/14 12:51:48;;;;;;;53.53;27.00;;;;;;;;;;10436660;28;20444;-84
2023/10/14 12:56:52;;;;;;;51.30;25.27;;;;;;;;;;10431890;28;20435;-84
2023/10/14 13:01:59;;;;;;;47.25;25.42;;;;;;;;;;10431527;28;20505;-84
2023/10/14 13:07:01;;;;;;;47.35;25.40;;;;;;;;;;10428622;28;20828;-84
2023/10/14 13:12:15;;;;;;;47.38;26.15;;;;;;;;;;10428997;28;20441;-84
2023/10/14 13:17:18;;;;;;;38.73;23.20;;;;;;;;;;10428567;28;20475;-84
2023/10/14 13:22:23;;;;;;;39.65;23.30;;;;;;;;;;10425382;28;20519;-85
2023/10/14 13:27:27;;;;;;;37.97;22.27;;;;;;;;;;10422623;28;20457;-84
2023/10/14 13:32:29;;;;;;;40.97;22.07;;;;;;;;;;10428290;28;20439;-85
2023/10/14 13:37:32;;;;;;;39.60;22.23;;;;;;;;;;10434132;28;20435;-85
2023/10/14 13:42:36;;;;;;;36.97;20.07;;;;;;;;;;10428727;28;20509;-89
2023/10/14 13:47:41;;;;;;;37.22;20.75;;;;;;;;;;10432154;28;20441;-85
2023/10/14 13:52:51;;;;;;;36.03;19.97;;;;;;;;;;10430585;28;20502;-85
2023/10/14 13:57:55;;;;;;;30.95;18.35;;;;;;;;;;10435536;28;20438;-85
2023/10/14 14:02:57;;;;;;;35.30;19.00;;;;;;;;;;10433486;28;20459;-86
2023/10/14 14:07:59;;;;;;;31.07;18.67;;;;;;;;;;10428091;28;20481;-85
2023/10/14 14:13:04;;;;;;;32.38;19.27;;;;;;;;;;10433256;28;20432;-85
2023/10/14 14:18:06;;;;;;;33.40;18.77;;;;;;;;;;10427062;28;20504;-85
2023/10/14 14:23:09;;;;;;;31.75;18.00;;;;;;;;;;10427089;28;20459;-86
2023/10/14 14:28:12;;;;;;;36.83;19.40;;;;;;;;;;10433650;28;20412;-86
2023/10/14 14:33:15;;;;;;;33.95;18.20;;;;;;;;;;10422403;28;20926;-85
2023/10/14 14:38:20;;;;;;;35.17;19.27;;;;;;;;;;10425763;28;20448;-85
2023/10/14 14:43:24;;;;;;;33.60;19.00;;;;;;;;;;10428988;28;21143;-85
2023/10/14 14:48:27;;;;;;;37.17;19.10;;;;;;;;;;10425689;28;20996;-87
2023/10/14 14:53:30;;;;;;;33.65;18.58;;;;;;;;;;10430850;28;20525;-85
2023/10/14 14:58:34;;;;;;;35.17;19.40;;;;;;;;;;10430482;28;21024;-85
2023/10/14 15:03:36;;;;;;;34.33;18.65;;;;;;;;;;10426491;28;20485;-85
2023/10/14 15:08:38;;;;;;;39.47;21.30;;;;;;;;;;10430442;28;20462;-85
2023/10/14 15:13:43;;;;;;;36.10;20.45;;;;;;;;;;10427831;28;20454;-85
2023/10/14 15:18:46;;;;;;;35.47;19.83;;;;;;;;;;10446455;28;20950;-85
2023/10/14 15:23:48;;;;;;;31.23;19.13;;;;;;;;;;10437638;28;20455;-85
2023/10/14 15:28:52;;;;;;;36.58;18.08;;;;;;;;;;10442191;28;20417;-85
2023/10/14 15:33:55;;;;;;;29.33;17.47;;;;;;;;;;10440057;28;20532;-85
2023/10/14 15:38:58;;;;;;;32.40;19.02;;;;;;;;;;10436325;28;20498;-84
2023/10/14 15:44:03;;;;;;;34.35;20.15;;;;;;;;;;10432512;28;20455;-86
2023/10/14 15:49:09;;;;;;;35.93;20.60;;;;;;;;;;10430759;28;20451;-86
2023/10/14 15:54:13;;;;;;;36.15;20.30;;;;;;;;;;10436004;28;20949;-86
2023/10/14 15:59:17;;;;;;;39.58;21.83;;;;;;;;;;10418841;28;20473;-86
2023/10/14 16:04:20;;;;;;;37.05;20.75;;;;;;;;;;10437540;28;20453;-84
2023/10/14 16:09:26;;;;;;;37.53;21.30;;;;;;;;;;10438388;28;20442;-85
2023/10/14 16:14:29;;;;;;;36.10;20.33;;;;;;;;;;10431639;28;20435;-86
2023/10/14 16:19:32;;;;;;;40.80;21.08;;;;;;;;;;10438212;28;20447;-84
2023/10/14 16:24:34;;;;;;;41.53;21.77;;;;;;;;;;10434484;28;20459;-85
2023/10/14 16:29:38;;;;;;;40.22;22.13;;;;;;;;;;10438370;28;20476;-86
2023/10/14 16:34:40;;;;;;;37.70;21.33;;;;;;;;;;10425672;28;20553;-84
2023/10/14 16:39:43;;;;;;;39.93;21.90;;;;;;;;;;10429737;28;21005;-84
2023/10/14 16:44:47;;;;;;;40.77;21.93;;;;;;;;;;10436833;28;20457;-84
2023/10/14 16:49:50;;;;;;;38.63;21.80;;;;;;;;;;10438032;28;20505;-84
2023/10/14 16:54:57;;;;;;;42.58;21.92;;;;;;;;;;10427571;28;20993;-84
2023/10/14 17:00:00;;;;;;;40.47;22.38;;;;;;;;;;10435170;28;21042;-85
2023/10/14 17:05:04;;;;;;;43.07;21.67;;;;;;;;;;10440655;28;21051;-84
2023/10/14 17:10:08;;;;;;;44.90;22.48;;;;;;;;;;10424469;28;20437;-84
2023/10/14 17:15:18;;;;;;;45.25;22.55;;;;;;;;;;10429340;28;20396;-85
2023/10/14 17:20:22;;;;;;;40.47;23.00;;;;;;;;;;10432034;28;20495;-85
2023/10/14 17:25:27;;;;;;;45.20;23.77;;;;;;;;;;10434066;28;20417;-85
2023/10/14 17:30:31;;;;;;;42.83;23.37;;;;;;;;;;10426535;28;20435;-84
2023/10/14 17:35:35;;;;;;;41.58;22.58;;;;;;;;;;10426675;28;20565;-84
2023/10/14 17:40:39;;;;;;;40.92;23.35;;;;;;;;;;10425293;28;20921;-84
2023/10/14 17:45:43;;;;;;;47.10;24.52;;;;;;;;;;10422836;28;20511;-83
2023/10/14 17:50:47;;;;;;;43.38;23.67;;;;;;;;;;10424873;28;20416;-83
2023/10/14 17:55:55;;;;;;;40.00;23.75;;;;;;;;;;10422512;28;20441;-84
2023/10/14 18:00:59;;;;;;;47.13;25.73;;;;;;;;;;10426991;28;20445;-84
2023/10/14 18:06:04;;;;;;;47.50;26.33;;;;;;;;;;10426853;28;20480;-84
2023/10/14 18:11:08;;;;;;;50.25;28.17;;;;;;;;;;10429298;28;20438;-85
2023/10/14 18:16:18;;;;;;;47.33;27.60;;;;;;;;;;10428473;28;20436;-84
2023/10/14 18:21:20;;;;;;;52.95;28.85;;;;;;;;;;10431549;28;20412;-85
2023/10/14 18:26:22;;;;;;;55.40;30.48;;;;;;;;;;10424479;28;20526;-85
2023/10/14 18:31:26;;;;;;;55.43;28.87;;;;;;;;;;10427178;28;20471;-83
2023/10/14 18:36:29;;;;;;;56.25;31.92;;;;;;;;;;10433608;28;20412;-84
2023/10/14 18:41:31;;;;;;;57.78;32.38;;;;;;;;;;10420900;28;20413;-85
2023/10/14 18:46:35;;;;;;;63.17;32.70;;;;;;;;;;10421079;28;20585;-83
2023/10/14 18:51:38;;;;;;;57.53;31.50;;;;;;;;;;10426896;28;20445;-85
2023/10/14 18:56:40;;;;;;;56.03;32.33;;;;;;;;;;10429813;28;20404;-85
2023/10/14 19:01:44;;;;;;;55.77;31.03;;;;;;;;;;10422868;28;20410;-85
2023/10/14 19:06:47;;;;;;;55.55;29.58;;;;;;;;;;10425197;28;20461;-85
2023/10/14 19:11:49;;;;;;;57.05;29.05;;;;;;;;;;10424556;28;20409;-85
2023/10/14 19:16:53;;;;;;;56.67;30.45;;;;;;;;;;10435107;28;20416;-86
2023/10/14 19:21:56;;;;;;;54.75;29.60;;;;;;;;;;10424884;28;20463;-85
2023/10/14 19:26:58;;;;;;;52.90;29.70;;;;;;;;;;10424893;28;20474;-85
2023/10/14 19:32:02;;;;;;;57.60;30.80;;;;;;;;;;10426303;28;20431;-85
2023/10/14 19:37:07;;;;;;;60.25;31.45;;;;;;;;;;10425870;28;20447;-85
2023/10/14 19:42:09;;;;;;;56.60;30.93;;;;;;;;;;10423299;28;20413;-92
2023/10/14 19:47:13;;;;;;;59.88;30.65;;;;;;;;;;10433836;28;20965;-88
2023/10/14 19:52:16;;;;;;;57.08;30.10;;;;;;;;;;10437753;28;20440;-88
2023/10/14 19:57:18;;;;;;;54.90;30.65;;;;;;;;;;10425341;28;20406;-88
2023/10/14 20:02:22;;;;;;;53.30;29.63;;;;;;;;;;10438801;28;20463;-88
2023/10/14 20:07:24;;;;;;;52.95;28.80;;;;;;;;;;10444779;28;20431;-88
2023/10/14 20:12:26;;;;;;;51.92;28.70;;;;;;;;;;10448378;28;20400;-88
2023/10/14 20:17:31;;;;;;;53.95;30.05;;;;;;;;;;10440823;28;20411;-89
2023/10/14 20:22:35;;;;;;;52.03;28.20;;;;;;;;;;10446719;28;20949;-89
2023/10/14 20:27:38;;;;;;;52.37;28.23;;;;;;;;;;10446980;28;20427;-88
2023/10/14 20:32:42;;;;;;;48.70;26.90;;;;;;;;;;10439266;28;20461;-90
2023/10/14 20:37:46;;;;;;;50.20;26.65;;;;;;;;;;10442104;28;20420;-89
2023/10/14 20:42:50;;;;;;;48.22;26.38;;;;;;;;;;10447226;28;20411;-89
2023/10/14 20:47:57;;;;;;;51.13;26.25;;;;;;;;;;10440971;28;20513;-89
2023/10/14 20:52:59;;;;;;;46.47;25.55;;;;;;;;;;10443921;28;20420;-89
2023/10/14 20:58:03;;;;;;;42.92;25.98;;;;;;;;;;10442645;28;20438;-89
2023/10/14 21:03:12;;;;;;;52.30;26.17;;;;;;;;;;10451073;28;20477;-89
2023/10/14 21:08:16;;;;;;;43.80;24.90;;;;;;;;;;10447900;28;20915;-88
2023/10/14 21:13:20;;;;;;;43.40;25.23;;;;;;;;;;10475157;28;20488;-89
2023/10/14 21:18:25;;;;;;;41.17;24.83;;;;;;;;;;10486544;28;20411;-89
2023/10/14 21:23:29;;;;;;;45.10;25.00;;;;;;;;;;10444099;28;20433;-88
2023/10/14 21:28:31;;;;;;;42.25;23.77;;;;;;;;;;10444469;28;20469;-89
2023/10/14 21:33:35;;;;;;;41.33;24.00;;;;;;;;;;10444484;28;20415;-89
2023/10/14 21:38:38;;;;;;;42.25;24.63;;;;;;;;;;10439064;28;20801;-89
2023/10/14 21:43:40;;;;;;;40.60;23.75;;;;;;;;;;10441658;28;20448;-89
2023/10/14 21:48:44;;;;;;;45.08;25.38;;;;;;;;;;10441635;28;20457;-89
2023/10/14 21:53:47;;;;;;;43.67;23.95;;;;;;;;;;10439917;28;20427;-89
2023/10/14 21:58:49;;;;;;;42.73;23.63;;;;;;;;;;10438522;28;20408;-88
2023/10/14 22:03:53;;;;;;;45.65;24.73;;;;;;;;;;10433101;28;20937;-89
2023/10/14 22:08:59;;;;;;;42.13;24.92;;;;;;;;;;10432193;28;20455;-89
2023/10/14 22:14:01;;;;;;;45.58;25.27;;;;;;;;;;10429912;28;20871;-89
2023/10/14 22:19:05;;;;;;;45.63;25.07;;;;;;;;;;10430345;28;20525;-88
2023/10/14 22:24:09;;;;;;;42.72;24.17;;;;;;;;;;10429558;28;20454;-89
2023/10/14 22:29:15;;;;;;;43.42;24.48;;;;;;;;;;10439305;28;20421;-88
2023/10/14 22:34:19;;;;;;;41.83;24.65;;;;;;;;;;10436381;28;20388;-88
2023/10/14 22:39:22;;;;;;;42.20;24.58;;;;;;;;;;10428999;28;20753;-90
2023/10/14 22:44:26;;;;;;;43.33;24.92;;;;;;;;;;10425874;28;20864;-88
2023/10/14 22:49:29;;;;;;;45.83;24.50;;;;;;;;;;10430596;28;20477;-88
2023/10/14 22:54:32;;;;;;;40.90;24.63;;;;;;;;;;10433867;28;20413;-89
2023/10/14 22:59:34;;;;;;;42.08;24.33;;;;;;;;;;10430384;28;20459;-89
2023/10/14 23:04:38;;;;;;;46.27;25.07;;;;;;;;;;10430698;28;20413;-89
2023/10/14 23:09:40;;;;;;;40.03;24.30;;;;;;;;;;10432755;28;20899;-89
2023/10/14 23:14:42;;;;;;;40.95;24.08;;;;;;;;;;10434236;28;20884;-89
2023/10/14 23:19:46;;;;;;;44.45;24.88;;;;;;;;;;10430130;28;20438;-88
2023/10/14 23:24:48;;;;;;;39.17;23.77;;;;;;;;;;10432318;28;20424;-89
2023/10/14 23:29:51;;;;;;;43.55;24.02;;;;;;;;;;10434119;28;20874;-88
2023/10/14 23:34:55;;;;;;;44.80;25.13;;;;;;;;;;10425231;28;20409;-89
2023/10/14 23:39:57;;;;;;;44.90;24.88;;;;;;;;;;10438232;28;21138;-89
2023/10/14 23:45:00;;;;;;;43.55;24.48;;;;;;;;;;10446258;28;20447;-88
2023/10/14 23:50:04;;;;;;;41.78;24.65;;;;;;;;;;10441223;28;20433;-89
2023/10/14 23:55:10;;;;;;;43.00;23.52;;;;;;;;;;10446862;28;20412;-88
